sensor_id;sensor_type;location;lat;lon;timestamp;pressure;altitude;pressure_sealevel;temperature;humidity
39487;BME280;25173;50.430;18.926;2023-07-31T00:01:10;97811.16;;;20.39;70.65
39487;BME280;25173;50.430;18.926;2023-07-31T00:04:10;97812.69;;;20.36;70.55
39487;BME280;25173;50.430;18.926;2023-07-31T00:07:11;97826.25;;;20.29;71.10
39487;BME280;25173;50.430;18.926;2023-07-31T00:10:12;97828.31;;;20.20;71.38
39487;BME280;25173;50.430;18.926;2023-07-31T00:13:12;97830.38;;;20.11;72.08
39487;BME280;25173;50.430;18.926;2023-07-31T00:16:13;97836.47;;;20.04;71.91
39487;BME280;25173;50.430;18.926;2023-07-31T00:19:14;97833.81;;;19.96;72.47
39487;BME280;25173;50.430;18.926;2023-07-31T00:22:14;97825.88;;;19.94;72.02
39487;BME280;25173;50.430;18.926;2023-07-31T00:25:15;97830.94;;;19.92;72.23
39487;BME280;25173;50.430;18.926;2023-07-31T00:28:15;97830.34;;;19.87;72.62
39487;BME280;25173;50.430;18.926;2023-07-31T00:31:16;97824.72;;;19.83;72.28
39487;BME280;25173;50.430;18.926;2023-07-31T00:34:16;97827.34;;;19.80;72.71
39487;BME280;25173;50.430;18.926;2023-07-31T00:37:17;97838.28;;;19.76;72.31
39487;BME280;25173;50.430;18.926;2023-07-31T00:40:17;97837.69;;;19.70;72.29
39487;BME280;25173;50.430;18.926;2023-07-31T00:43:18;97845.75;;;19.63;72.08
39487;BME280;25173;50.430;18.926;2023-07-31T00:46:19;97848.69;;;19.58;72.19
39487;BME280;25173;50.430;18.926;2023-07-31T00:49:21;97848.69;;;19.58;72.00
39487;BME280;25173;50.430;18.926;2023-07-31T00:52:23;97848.44;;;19.51;72.12
39487;BME280;25173;50.430;18.926;2023-07-31T00:55:24;97847.00;;;19.45;72.00
39487;BME280;25173;50.430;18.926;2023-07-31T00:58:25;97847.25;;;19.40;72.10
39487;BME280;25173;50.430;18.926;2023-07-31T01:01:27;97846.44;;;19.39;71.96
39487;BME280;25173;50.430;18.926;2023-07-31T01:04:27;97840.09;;;19.39;72.19
39487;BME280;25173;50.430;18.926;2023-07-31T01:08:24;97855.16;;;19.42;72.33
39487;BME280;25173;50.430;18.926;2023-07-31T01:11:16;97856.66;;;19.39;72.53
39487;BME280;25173;50.430;18.926;2023-07-31T01:14:18;97843.84;;;19.34;72.21
39487;BME280;25173;50.430;18.926;2023-07-31T01:17:18;97867.00;;;19.42;71.66
39487;BME280;25173;50.430;18.926;2023-07-31T01:20:24;97853.75;;;19.35;72.22
39487;BME280;25173;50.430;18.926;2023-07-31T01:27:15;97862.06;;;19.15;72.73
39487;BME280;25173;50.430;18.926;2023-07-31T01:30:22;97864.06;;;19.06;73.22
39487;BME280;25173;50.430;18.926;2023-07-31T01:33:25;97862.34;;;19.01;73.14
39487;BME280;25173;50.430;18.926;2023-07-31T01:36:26;97862.66;;;18.99;73.29
39487;BME280;25173;50.430;18.926;2023-07-31T01:39:27;97865.59;;;19.03;73.23
39487;BME280;25173;50.430;18.926;2023-07-31T01:42:28;97867.53;;;19.03;73.07
39487;BME280;25173;50.430;18.926;2023-07-31T01:45:28;97874.72;;;18.95;73.39
39487;BME280;25173;50.430;18.926;2023-07-31T01:48:29;97876.19;;;18.92;73.49
39487;BME280;25173;50.430;18.926;2023-07-31T01:51:35;97886.91;;;18.94;73.62
39487;BME280;25173;50.430;18.926;2023-07-31T01:54:36;97883.34;;;18.93;73.72
39487;BME280;25173;50.430;18.926;2023-07-31T01:57:37;97885.16;;;18.89;73.84
39487;BME280;25173;50.430;18.926;2023-07-31T02:00:38;97887.78;;;18.86;74.11
39487;BME280;25173;50.430;18.926;2023-07-31T02:03:38;97879.00;;;18.84;73.97
39487;BME280;25173;50.430;18.926;2023-07-31T02:06:39;97886.63;;;18.87;73.93
39487;BME280;25173;50.430;18.926;2023-07-31T02:09:40;97886.97;;;18.85;74.10
39487;BME280;25173;50.430;18.926;2023-07-31T02:12:41;97877.88;;;18.85;74.01
39487;BME280;25173;50.430;18.926;2023-07-31T02:15:41;97879.00;;;18.84;73.75
39487;BME280;25173;50.430;18.926;2023-07-31T02:18:42;97876.56;;;18.82;74.09
39487;BME280;25173;50.430;18.926;2023-07-31T02:21:42;97880.63;;;18.85;73.96
39487;BME280;25173;50.430;18.926;2023-07-31T02:24:43;97888.78;;;18.81;74.12
39487;BME280;25173;50.430;18.926;2023-07-31T02:27:43;97889.59;;;18.82;74.44
39487;BME280;25173;50.430;18.926;2023-07-31T02:30:45;97895.25;;;18.85;74.25
39487;BME280;25173;50.430;18.926;2023-07-31T02:33:46;97898.97;;;18.89;74.36
39487;BME280;25173;50.430;18.926;2023-07-31T02:36:47;97896.66;;;18.91;74.57
39487;BME280;25173;50.430;18.926;2023-07-31T02:39:47;97900.56;;;18.90;74.68
39487;BME280;25173;50.430;18.926;2023-07-31T02:42:48;97919.41;;;18.88;74.92
39487;BME280;25173;50.430;18.926;2023-07-31T02:45:52;97901.38;;;18.91;75.10
39487;BME280;25173;50.430;18.926;2023-07-31T02:48:53;97912.41;;;18.91;75.12
39487;BME280;25173;50.430;18.926;2023-07-31T02:51:54;97917.75;;;18.96;74.67
39487;BME280;25173;50.430;18.926;2023-07-31T02:54:54;97917.13;;;18.90;74.96
39487;BME280;25173;50.430;18.926;2023-07-31T02:57:55;97910.66;;;18.86;75.00
39487;BME280;25173;50.430;18.926;2023-07-31T03:00:58;97909.91;;;18.77;75.23
39487;BME280;25173;50.430;18.926;2023-07-31T03:03:59;97914.28;;;18.78;75.05
39487;BME280;25173;50.430;18.926;2023-07-31T03:07:00;97918.84;;;18.74;75.29
39487;BME280;25173;50.430;18.926;2023-07-31T03:10:01;97917.38;;;18.77;75.01
39487;BME280;25173;50.430;18.926;2023-07-31T03:13:02;97914.94;;;18.75;74.95
39487;BME280;25173;50.430;18.926;2023-07-31T03:16:03;97913.06;;;18.67;75.02
39487;BME280;25173;50.430;18.926;2023-07-31T03:19:04;97911.56;;;18.70;75.08
39487;BME280;25173;50.430;18.926;2023-07-31T03:22:04;97925.50;;;18.73;75.01
39487;BME280;25173;50.430;18.926;2023-07-31T03:25:05;97914.28;;;18.78;74.67
39487;BME280;25173;50.430;18.926;2023-07-31T03:28:06;97922.22;;;18.80;74.68
39487;BME280;25173;50.430;18.926;2023-07-31T03:31:08;97921.53;;;18.83;74.39
39487;BME280;25173;50.430;18.926;2023-07-31T03:34:09;97922.34;;;18.83;74.49
39487;BME280;25173;50.430;18.926;2023-07-31T03:37:09;97930.31;;;18.85;74.25
39487;BME280;25173;50.430;18.926;2023-07-31T03:40:10;97925.59;;;18.85;74.27
39487;BME280;25173;50.430;18.926;2023-07-31T03:43:11;97928.84;;;18.87;74.31
39487;BME280;25173;50.430;18.926;2023-07-31T03:46:13;97923.81;;;18.89;74.15
39487;BME280;25173;50.430;18.926;2023-07-31T03:49:14;97922.03;;;18.85;74.32
39487;BME280;25173;50.430;18.926;2023-07-31T03:52:15;97928.03;;;18.87;74.45
39487;BME280;25173;50.430;18.926;2023-07-31T03:55:16;97927.22;;;18.86;74.34
39487;BME280;25173;50.430;18.926;2023-07-31T03:58:16;97921.03;;;18.89;74.48
39487;BME280;25173;50.430;18.926;2023-07-31T04:01:17;97917.47;;;18.89;74.47
39487;BME280;25173;50.430;18.926;2023-07-31T04:04:18;97933.50;;;18.95;73.97
39487;BME280;25173;50.430;18.926;2023-07-31T04:07:18;97935.91;;;18.97;74.07
39487;BME280;25173;50.430;18.926;2023-07-31T04:10:19;97950.00;;;19.04;73.84
39487;BME280;25173;50.430;18.926;2023-07-31T04:13:22;97962.25;;;19.15;73.67
39487;BME280;25173;50.430;18.926;2023-07-31T04:16:22;97954.84;;;19.28;73.51
39487;BME280;25173;50.430;18.926;2023-07-31T04:19:24;97952.53;;;19.38;72.93
39487;BME280;25173;50.430;18.926;2023-07-31T04:22:24;97948.06;;;19.46;72.63
39487;BME280;25173;50.430;18.926;2023-07-31T04:25:25;97941.69;;;19.54;72.19
39487;BME280;25173;50.430;18.926;2023-07-31T04:28:25;97944.47;;;19.54;72.07
39487;BME280;25173;50.430;18.926;2023-07-31T04:31:26;97944.13;;;19.56;71.67
39487;BME280;25173;50.430;18.926;2023-07-31T04:34:27;97941.16;;;19.61;71.51
39487;BME280;25173;50.430;18.926;2023-07-31T04:37:27;97944.84;;;19.65;71.34
39487;BME280;25173;50.430;18.926;2023-07-31T04:40:28;97947.75;;;19.68;71.24
39487;BME280;25173;50.430;18.926;2023-07-31T04:43:28;97954.34;;;19.76;71.12
39487;BME280;25173;50.430;18.926;2023-07-31T04:46:29;97961.56;;;20.01;70.89
39487;BME280;25173;50.430;18.926;2023-07-31T04:49:30;97969.78;;;20.10;70.03
39487;BME280;25173;50.430;18.926;2023-07-31T04:52:30;97967.16;;;20.13;69.73
39487;BME280;25173;50.430;18.926;2023-07-31T04:55:31;97970.03;;;20.17;69.41
39487;BME280;25173;50.430;18.926;2023-07-31T04:58:31;97967.06;;;20.22;69.49
39487;BME280;25173;50.430;18.926;2023-07-31T05:01:32;97961.09;;;20.32;69.08
39487;BME280;25173;50.430;18.926;2023-07-31T05:04:33;97962.72;;;20.33;68.73
39487;BME280;25173;50.430;18.926;2023-07-31T05:07:33;97957.19;;;20.33;68.65
39487;BME280;25173;50.430;18.926;2023-07-31T05:10:34;97969.66;;;20.39;68.00
39487;BME280;25173;50.430;18.926;2023-07-31T05:13:34;97969.06;;;20.34;67.96
39487;BME280;25173;50.430;18.926;2023-07-31T05:16:35;97966.31;;;20.46;67.70
39487;BME280;25173;50.430;18.926;2023-07-31T05:19:35;97957.00;;;20.50;67.47
39487;BME280;25173;50.430;18.926;2023-07-31T05:22:36;97960.34;;;20.56;67.15
39487;BME280;25173;50.430;18.926;2023-07-31T05:25:36;97963.44;;;20.54;66.52
39487;BME280;25173;50.430;18.926;2023-07-31T05:28:37;97957.25;;;20.58;66.92
39487;BME280;25173;50.430;18.926;2023-07-31T05:31:38;97969.94;;;20.71;66.27
39487;BME280;25173;50.430;18.926;2023-07-31T05:34:38;97972.69;;;20.71;65.98
39487;BME280;25173;50.430;18.926;2023-07-31T05:37:39;97974.78;;;20.74;65.27
39487;BME280;25173;50.430;18.926;2023-07-31T05:40:40;97963.47;;;20.79;65.55
39487;BME280;25173;50.430;18.926;2023-07-31T05:43:40;97969.22;;;20.98;65.31
39487;BME280;25173;50.430;18.926;2023-07-31T05:46:41;97970.28;;;21.06;64.42
39487;BME280;25173;50.430;18.926;2023-07-31T05:49:41;97978.81;;;21.01;64.37
39487;BME280;25173;50.430;18.926;2023-07-31T05:52:42;97979.16;;;20.99;63.87
39487;BME280;25173;50.430;18.926;2023-07-31T05:55:42;97981.22;;;20.90;63.48
39487;BME280;25173;50.430;18.926;2023-07-31T05:58:43;97977.22;;;20.87;63.84
39487;BME280;25173;50.430;18.926;2023-07-31T06:01:43;97976.50;;;20.90;63.83
39487;BME280;25173;50.430;18.926;2023-07-31T06:04:44;97978.25;;;20.95;63.66
39487;BME280;25173;50.430;18.926;2023-07-31T06:07:45;97983.78;;;20.95;63.64
39487;BME280;25173;50.430;18.926;2023-07-31T06:10:45;97980.78;;;21.00;63.12
39487;BME280;25173;50.430;18.926;2023-07-31T06:13:46;97980.41;;;21.14;63.14
39487;BME280;25173;50.430;18.926;2023-07-31T06:16:48;97979.66;;;21.25;63.17
39487;BME280;25173;50.430;18.926;2023-07-31T06:19:49;97972.47;;;21.37;62.62
39487;BME280;25173;50.430;18.926;2023-07-31T06:22:50;97979.50;;;21.46;62.16
39487;BME280;25173;50.430;18.926;2023-07-31T06:25:50;97976.00;;;21.49;62.04
39487;BME280;25173;50.430;18.926;2023-07-31T06:28:51;97971.47;;;21.57;61.73
39487;BME280;25173;50.430;18.926;2023-07-31T06:31:51;97975.47;;;21.72;61.67
39487;BME280;25173;50.430;18.926;2023-07-31T06:34:52;97967.03;;;21.80;60.90
39487;BME280;25173;50.430;18.926;2023-07-31T06:37:54;97969.03;;;21.95;61.25
39487;BME280;25173;50.430;18.926;2023-07-31T06:40:54;97969.13;;;22.11;60.63
39487;BME280;25173;50.430;18.926;2023-07-31T06:43:55;97957.13;;;22.07;60.12
39487;BME280;25173;50.430;18.926;2023-07-31T06:46:56;97966.81;;;22.13;60.16
39487;BME280;25173;50.430;18.926;2023-07-31T06:49:56;97959.09;;;22.06;59.22
39487;BME280;25173;50.430;18.926;2023-07-31T06:53:15;97958.81;;;22.12;59.09
39487;BME280;25173;50.430;18.926;2023-07-31T06:56:16;97974.84;;;22.18;59.49
39487;BME280;25173;50.430;18.926;2023-07-31T06:59:16;97968.41;;;22.14;59.45
39487;BME280;25173;50.430;18.926;2023-07-31T07:02:17;97970.03;;;22.15;58.33
39487;BME280;25173;50.430;18.926;2023-07-31T07:05:18;97966.19;;;22.20;58.63
39487;BME280;25173;50.430;18.926;2023-07-31T07:08:18;97969.97;;;22.27;58.43
39487;BME280;25173;50.430;18.926;2023-07-31T07:11:19;97972.63;;;22.24;58.63
39487;BME280;25173;50.430;18.926;2023-07-31T07:14:19;97974.59;;;22.23;58.66
39487;BME280;25173;50.430;18.926;2023-07-31T07:17:20;97980.25;;;22.27;58.30
39487;BME280;25173;50.430;18.926;2023-07-31T07:20:20;97974.00;;;22.30;57.92
39487;BME280;25173;50.430;18.926;2023-07-31T07:23:21;97979.47;;;22.42;57.72
39487;BME280;25173;50.430;18.926;2023-07-31T07:26:22;97981.28;;;22.50;57.33
39487;BME280;25173;50.430;18.926;2023-07-31T07:29:23;97973.59;;;22.59;57.84
39487;BME280;25173;50.430;18.926;2023-07-31T07:32:23;97979.84;;;22.72;57.43
39487;BME280;25173;50.430;18.926;2023-07-31T07:35:24;97981.16;;;22.74;57.45
39487;BME280;25173;50.430;18.926;2023-07-31T07:38:24;97981.81;;;22.71;57.03
39487;BME280;25173;50.430;18.926;2023-07-31T07:41:25;97981.16;;;22.74;56.95
39487;BME280;25173;50.430;18.926;2023-07-31T07:44:26;97975.03;;;22.84;57.08
39487;BME280;25173;50.430;18.926;2023-07-31T07:47:27;97969.94;;;23.02;56.97
39487;BME280;25173;50.430;18.926;2023-07-31T07:50:27;97976.91;;;23.12;56.40
39487;BME280;25173;50.430;18.926;2023-07-31T07:53:28;97982.63;;;23.19;56.32
39487;BME280;25173;50.430;18.926;2023-07-31T07:56:28;97971.69;;;23.26;55.95
39487;BME280;25173;50.430;18.926;2023-07-31T07:59:29;97974.69;;;23.37;55.57
39487;BME280;25173;50.430;18.926;2023-07-31T08:02:29;97986.09;;;23.32;55.14
39487;BME280;25173;50.430;18.926;2023-07-31T08:05:30;97977.59;;;23.25;55.01
39487;BME280;25173;50.430;18.926;2023-07-31T08:08:37;97980.47;;;23.12;54.73
39487;BME280;25173;50.430;18.926;2023-07-31T08:11:38;97974.03;;;23.08;55.01
39487;BME280;25173;50.430;18.926;2023-07-31T08:14:38;97979.47;;;23.20;55.57
39487;BME280;25173;50.430;18.926;2023-07-31T08:17:39;97989.31;;;23.34;54.89
39487;BME280;25173;50.430;18.926;2023-07-31T08:20:39;97981.78;;;23.34;54.99
39487;BME280;25173;50.430;18.926;2023-07-31T08:23:40;97980.84;;;23.62;54.78
39487;BME280;25173;50.430;18.926;2023-07-31T08:26:42;97986.91;;;23.86;53.49
39487;BME280;25173;50.430;18.926;2023-07-31T08:29:42;97988.00;;;24.01;53.42
39487;BME280;25173;50.430;18.926;2023-07-31T08:32:43;97988.50;;;24.22;52.47
39487;BME280;25173;50.430;18.926;2023-07-31T08:35:43;97978.84;;;24.39;52.78
39487;BME280;25173;50.430;18.926;2023-07-31T08:38:45;97981.13;;;24.53;52.22
39487;BME280;25173;50.430;18.926;2023-07-31T08:41:47;97981.28;;;24.63;51.52
39487;BME280;25173;50.430;18.926;2023-07-31T08:44:48;97976.97;;;24.66;51.18
39487;BME280;25173;50.430;18.926;2023-07-31T08:47:51;97977.47;;;24.71;50.96
39487;BME280;25173;50.430;18.926;2023-07-31T08:50:52;97986.38;;;24.58;50.92
39487;BME280;25173;50.430;18.926;2023-07-31T08:53:53;97977.13;;;24.54;51.63
39487;BME280;25173;50.430;18.926;2023-07-31T08:56:54;97981.59;;;24.58;51.07
39487;BME280;25173;50.430;18.926;2023-07-31T08:59:56;97984.31;;;24.55;50.76
39487;BME280;25173;50.430;18.926;2023-07-31T09:06:02;97970.59;;;24.88;51.30
39487;BME280;25173;50.430;18.926;2023-07-31T09:09:04;97973.31;;;25.07;49.90
39487;BME280;25173;50.430;18.926;2023-07-31T09:12:05;97976.38;;;25.25;49.50
39487;BME280;25173;50.430;18.926;2023-07-31T09:15:07;97976.25;;;25.44;48.70
39487;BME280;25173;50.430;18.926;2023-07-31T09:18:09;97979.13;;;25.51;48.40
39487;BME280;25173;50.430;18.926;2023-07-31T09:21:09;97974.72;;;25.47;47.60
39487;BME280;25173;50.430;18.926;2023-07-31T09:24:24;97980.44;;;25.31;46.63
39487;BME280;25173;50.430;18.926;2023-07-31T09:27:25;97972.88;;;25.05;48.25
39487;BME280;25173;50.430;18.926;2023-07-31T09:30:26;97965.84;;;25.15;48.36
39487;BME280;25173;50.430;18.926;2023-07-31T09:33:27;97981.63;;;25.30;47.29
39487;BME280;25173;50.430;18.926;2023-07-31T09:36:30;97976.63;;;25.17;46.67
39487;BME280;25173;50.430;18.926;2023-07-31T09:39:32;97966.00;;;24.99;46.85
39487;BME280;25173;50.430;18.926;2023-07-31T09:42:34;97962.91;;;25.04;47.36
39487;BME280;25173;50.430;18.926;2023-07-31T09:45:39;97962.47;;;25.29;47.38
39487;BME280;25173;50.430;18.926;2023-07-31T09:48:40;97965.72;;;25.34;45.59
39487;BME280;25173;50.430;18.926;2023-07-31T09:51:42;97976.00;;;25.27;46.50
39487;BME280;25173;50.430;18.926;2023-07-31T09:54:43;97975.03;;;25.16;46.49
39487;BME280;25173;50.430;18.926;2023-07-31T09:57:48;97963.66;;;25.28;46.81
39487;BME280;25173;50.430;18.926;2023-07-31T10:00:48;97968.59;;;25.38;46.66
39487;BME280;25173;50.430;18.926;2023-07-31T10:03:49;97969.75;;;25.37;46.25
39487;BME280;25173;50.430;18.926;2023-07-31T10:06:51;97969.22;;;25.28;46.48
39487;BME280;25173;50.430;18.926;2023-07-31T10:09:55;97965.81;;;25.38;46.56
39487;BME280;25173;50.430;18.926;2023-07-31T10:12:59;97953.44;;;25.65;46.79
39487;BME280;25173;50.430;18.926;2023-07-31T10:16:00;97946.59;;;25.89;45.20
39487;BME280;25173;50.430;18.926;2023-07-31T10:19:01;97928.00;;;26.00;44.75
39487;BME280;25173;50.430;18.926;2023-07-31T10:22:03;97927.50;;;25.95;44.75
39487;BME280;25173;50.430;18.926;2023-07-31T10:25:04;97933.63;;;25.74;45.08
39487;BME280;25173;50.430;18.926;2023-07-31T10:28:05;97937.59;;;25.69;45.09
39487;BME280;25173;50.430;18.926;2023-07-31T10:31:06;97930.34;;;25.65;45.54
39487;BME280;25173;50.430;18.926;2023-07-31T10:34:07;97917.78;;;25.81;45.52
39487;BME280;25173;50.430;18.926;2023-07-31T10:37:20;97928.81;;;26.01;43.33
39487;BME280;25173;50.430;18.926;2023-07-31T10:40:27;97926.03;;;26.04;44.17
39487;BME280;25173;50.430;18.926;2023-07-31T10:43:27;97921.19;;;26.01;43.97
39487;BME280;25173;50.430;18.926;2023-07-31T10:46:28;97911.31;;;26.07;43.29
39487;BME280;25173;50.430;18.926;2023-07-31T10:49:29;97924.56;;;26.14;43.62
39487;BME280;25173;50.430;18.926;2023-07-31T10:52:34;97910.16;;;26.12;43.46
39487;BME280;25173;50.430;18.926;2023-07-31T10:55:40;97911.00;;;26.16;43.28
39487;BME280;25173;50.430;18.926;2023-07-31T10:58:44;97914.13;;;26.11;43.48
39487;BME280;25173;50.430;18.926;2023-07-31T11:01:56;97911.00;;;26.16;42.20
39487;BME280;25173;50.430;18.926;2023-07-31T11:11:13;97903.63;;;26.34;42.01
39487;BME280;25173;50.430;18.926;2023-07-31T11:14:14;97896.50;;;26.40;41.92
39487;BME280;25173;50.430;18.926;2023-07-31T11:17:14;97895.44;;;26.55;41.97
39487;BME280;25173;50.430;18.926;2023-07-31T11:20:15;97897.59;;;26.73;41.57
39487;BME280;25173;50.430;18.926;2023-07-31T11:23:17;97889.28;;;26.80;41.21
39487;BME280;25173;50.430;18.926;2023-07-31T11:26:18;97892.53;;;26.89;41.12
39487;BME280;25173;50.430;18.926;2023-07-31T11:29:20;97884.25;;;26.99;40.84
39487;BME280;25173;50.430;18.926;2023-07-31T11:32:20;97879.22;;;27.26;40.88
39487;BME280;25173;50.430;18.926;2023-07-31T11:35:21;97884.91;;;27.40;40.10
39487;BME280;25173;50.430;18.926;2023-07-31T11:38:31;97882.59;;;27.57;39.37
39487;BME280;25173;50.430;18.926;2023-07-31T11:41:31;97883.94;;;27.98;39.30
39487;BME280;25173;50.430;18.926;2023-07-31T11:44:41;97874.03;;;28.33;37.73
39487;BME280;25173;50.430;18.926;2023-07-31T11:47:48;97873.66;;;28.59;38.33
39487;BME280;25173;50.430;18.926;2023-07-31T11:50:51;97881.25;;;28.90;37.74
39487;BME280;25173;50.430;18.926;2023-07-31T11:53:54;97863.22;;;29.16;37.78
39487;BME280;25173;50.430;18.926;2023-07-31T11:56:56;97872.78;;;29.33;37.38
39487;BME280;25173;50.430;18.926;2023-07-31T11:59:58;97877.13;;;29.59;37.71
39487;BME280;25173;50.430;18.926;2023-07-31T12:02:58;97875.97;;;29.46;37.17
39487;BME280;25173;50.430;18.926;2023-07-31T12:05:59;97871.63;;;29.27;37.44
39487;BME280;25173;50.430;18.926;2023-07-31T12:09:02;97863.22;;;29.09;37.52
39487;BME280;25173;50.430;18.926;2023-07-31T12:12:07;97862.00;;;29.14;37.30
39487;BME280;25173;50.430;18.926;2023-07-31T12:15:15;97859.97;;;29.28;36.77
39487;BME280;25173;50.430;18.926;2023-07-31T12:18:19;97857.97;;;29.32;37.52
39487;BME280;25173;50.430;18.926;2023-07-31T12:21:20;97859.97;;;29.39;37.71
39487;BME280;25173;50.430;18.926;2023-07-31T12:24:21;97860.44;;;28.99;36.99
39487;BME280;25173;50.430;18.926;2023-07-31T12:27:22;97845.25;;;28.50;37.99
39487;BME280;25173;50.430;18.926;2023-07-31T12:30:34;97842.00;;;28.19;37.36
39487;BME280;25173;50.430;18.926;2023-07-31T12:33:36;97838.75;;;28.10;38.54
39487;BME280;25173;50.430;18.926;2023-07-31T12:36:38;97846.41;;;28.21;38.07
39487;BME280;25173;50.430;18.926;2023-07-31T12:39:40;97829.19;;;28.18;38.40
39487;BME280;25173;50.430;18.926;2023-07-31T12:42:41;97839.59;;;28.14;37.84
39487;BME280;25173;50.430;18.926;2023-07-31T12:45:41;97827.56;;;28.14;38.09
39487;BME280;25173;50.430;18.926;2023-07-31T12:48:42;97825.63;;;28.57;38.17
39487;BME280;25173;50.430;18.926;2023-07-31T12:51:43;97833.19;;;29.10;37.03
39487;BME280;25173;50.430;18.926;2023-07-31T12:54:43;97828.25;;;29.53;36.22
39487;BME280;25173;50.430;18.926;2023-07-31T12:57:44;97818.09;;;29.77;36.31
39487;BME280;25173;50.430;18.926;2023-07-31T13:00:44;97820.53;;;29.67;35.86
39487;BME280;25173;50.430;18.926;2023-07-31T13:03:45;97813.75;;;29.61;35.95
39487;BME280;25173;50.430;18.926;2023-07-31T13:06:45;97810.16;;;29.61;36.19
39487;BME280;25173;50.430;18.926;2023-07-31T13:09:46;97800.16;;;29.56;36.20
39487;BME280;25173;50.430;18.926;2023-07-31T13:12:46;97798.00;;;29.82;36.33
39487;BME280;25173;50.430;18.926;2023-07-31T13:15:47;97806.19;;;30.21;35.63
39487;BME280;25173;50.430;18.926;2023-07-31T13:18:47;97801.50;;;30.03;35.40
39487;BME280;25173;50.430;18.926;2023-07-31T13:21:48;97797.72;;;29.58;35.56
39487;BME280;25173;50.430;18.926;2023-07-31T13:24:49;97793.81;;;29.38;36.10
39487;BME280;25173;50.430;18.926;2023-07-31T13:27:49;97793.81;;;29.31;36.30
39487;BME280;25173;50.430;18.926;2023-07-31T13:30:50;97792.22;;;29.37;36.41
39487;BME280;25173;50.430;18.926;2023-07-31T13:33:50;97778.16;;;29.44;36.22
39487;BME280;25173;50.430;18.926;2023-07-31T13:36:51;97780.00;;;29.76;36.12
39487;BME280;25173;50.430;18.926;2023-07-31T13:39:51;97781.31;;;30.19;35.84
39487;BME280;25173;50.430;18.926;2023-07-31T13:42:52;97789.03;;;30.60;34.99
39487;BME280;25173;50.430;18.926;2023-07-31T13:45:53;97788.56;;;31.06;34.64
39487;BME280;25173;50.430;18.926;2023-07-31T13:48:54;97792.88;;;31.17;34.65
39487;BME280;25173;50.430;18.926;2023-07-31T13:51:56;97781.94;;;30.85;34.21
39487;BME280;25173;50.430;18.926;2023-07-31T13:54:57;97785.44;;;30.04;34.19
39487;BME280;25173;50.430;18.926;2023-07-31T13:57:57;97785.00;;;29.29;35.53
39487;BME280;25173;50.430;18.926;2023-07-31T14:00:58;97795.19;;;28.80;35.81
39487;BME280;25173;50.430;18.926;2023-07-31T14:03:59;97798.81;;;28.35;36.39
39487;BME280;25173;50.430;18.926;2023-07-31T14:06:59;97790.00;;;28.18;36.90
39487;BME280;25173;50.430;18.926;2023-07-31T14:10:00;97777.97;;;28.07;37.25
39487;BME280;25173;50.430;18.926;2023-07-31T14:13:00;97788.75;;;28.05;37.22
39487;BME280;25173;50.430;18.926;2023-07-31T14:16:01;97783.13;;;27.88;37.50
39487;BME280;25173;50.430;18.926;2023-07-31T14:19:02;97774.72;;;27.63;37.95
39487;BME280;25173;50.430;18.926;2023-07-31T14:22:02;97774.63;;;27.49;38.12
39487;BME280;25173;50.430;18.926;2023-07-31T14:25:03;97774.59;;;27.38;38.39
39487;BME280;25173;50.430;18.926;2023-07-31T14:28:04;97784.91;;;27.23;38.52
39487;BME280;25173;50.430;18.926;2023-07-31T14:31:04;97788.00;;;26.97;38.47
39487;BME280;25173;50.430;18.926;2023-07-31T14:34:05;97773.13;;;26.82;39.49
39487;BME280;25173;50.430;18.926;2023-07-31T14:37:05;97775.09;;;26.78;39.49
39487;BME280;25173;50.430;18.926;2023-07-31T14:40:08;97778.25;;;26.73;39.29
39487;BME280;25173;50.430;18.926;2023-07-31T14:43:09;97781.50;;;26.86;39.75
39487;BME280;25173;50.430;18.926;2023-07-31T14:46:09;97772.50;;;27.10;39.79
39487;BME280;25173;50.430;18.926;2023-07-31T14:49:10;97773.41;;;27.42;39.26
39487;BME280;25173;50.430;18.926;2023-07-31T14:52:10;97775.97;;;28.08;39.11
39487;BME280;25173;50.430;18.926;2023-07-31T14:55:11;97765.91;;;28.95;37.65
39487;BME280;25173;50.430;18.926;2023-07-31T14:58:11;97756.13;;;29.43;37.13
39487;BME280;25173;50.430;18.926;2023-07-31T15:01:14;97746.41;;;29.61;36.94
39487;BME280;25173;50.430;18.926;2023-07-31T15:04:14;97760.66;;;30.43;36.96
39487;BME280;25173;50.430;18.926;2023-07-31T15:07:15;97753.88;;;31.19;35.73
39487;BME280;25173;50.430;18.926;2023-07-31T15:10:15;97743.72;;;32.10;35.27
39487;BME280;25173;50.430;18.926;2023-07-31T15:13:16;97746.69;;;33.15;34.52
39487;BME280;25173;50.430;18.926;2023-07-31T15:16:17;97746.53;;;34.14;33.41
39487;BME280;25173;50.430;18.926;2023-07-31T15:19:17;97739.81;;;34.57;32.07
39487;BME280;25173;50.430;18.926;2023-07-31T15:22:18;97740.78;;;34.83;31.76
39487;BME280;25173;50.430;18.926;2023-07-31T15:25:18;97739.97;;;34.82;32.07
39487;BME280;25173;50.430;18.926;2023-07-31T15:28:19;97743.44;;;34.74;31.35
39487;BME280;25173;50.430;18.926;2023-07-31T15:31:19;97740.66;;;33.73;31.46
39487;BME280;25173;50.430;18.926;2023-07-31T15:34:20;97734.13;;;32.77;32.51
39487;BME280;25173;50.430;18.926;2023-07-31T15:37:20;97727.38;;;31.74;33.13
39487;BME280;25173;50.430;18.926;2023-07-31T15:40:21;97727.25;;;30.90;34.20
39487;BME280;25173;50.430;18.926;2023-07-31T15:43:22;97726.19;;;30.36;34.71
39487;BME280;25173;50.430;18.926;2023-07-31T15:46:22;97716.28;;;30.21;35.23
39487;BME280;25173;50.430;18.926;2023-07-31T15:49:23;97722.44;;;30.05;35.48
39487;BME280;25173;50.430;18.926;2023-07-31T15:52:23;97716.97;;;29.80;35.86
39487;BME280;25173;50.430;18.926;2023-07-31T15:55:24;97707.91;;;29.58;36.18
39487;BME280;25173;50.430;18.926;2023-07-31T15:58:27;97708.44;;;29.39;36.38
39487;BME280;25173;50.430;18.926;2023-07-31T16:01:28;97695.28;;;29.22;36.41